createdAt,value
2017-08-11T00:00:28.965Z,0
2017-08-11T00:02:30.389Z,0
2017-08-11T00:04:31.813Z,0
2017-08-11T00:06:35.514Z,0
2017-08-11T00:08:36.977Z,0
2017-08-11T00:10:38.843Z,0
2017-08-11T00:12:40.690Z,0
2017-08-11T00:14:42.463Z,0
2017-08-11T00:16:44.287Z,0
2017-08-11T00:18:45.800Z,0
2017-08-11T00:20:47.366Z,0
2017-08-11T00:22:48.880Z,0
2017-08-11T00:24:50.319Z,0
2017-08-11T00:26:51.745Z,0
2017-08-11T00:28:53.227Z,0
2017-08-11T00:30:55.623Z,0
2017-08-11T00:32:57.364Z,0
2017-08-11T00:34:59.181Z,0
2017-08-11T00:37:00.723Z,0
2017-08-11T00:39:02.237Z,0
2017-08-11T09:57:34.624Z,40
2017-08-11T09:59:36.044Z,40
2017-08-11T10:01:37.471Z,35
2017-08-11T10:04:19.915Z,30
2017-08-11T10:06:21.372Z,25
2017-08-11T10:08:22.777Z,30
2017-08-11T10:10:24.217Z,30
2017-08-11T10:12:25.635Z,30
2017-08-11T10:15:08.057Z,35
2017-08-11T10:17:09.466Z,30
2017-08-11T10:19:11.001Z,25
2017-08-11T10:21:12.537Z,35
2017-08-11T10:23:13.947Z,35
2017-08-11T10:25:15.476Z,40
2017-08-11T10:27:16.981Z,50
2017-08-11T10:29:18.413Z,50
2017-08-11T10:31:19.862Z,55
2017-08-11T10:33:21.380Z,60
2017-08-11T10:36:03.809Z,55
2017-08-11T10:38:05.249Z,55
2017-08-11T10:40:06.744Z,55
2017-08-11T10:42:08.174Z,60
2017-08-11T10:44:09.625Z,65
2017-08-11T10:46:11.058Z,65
2017-08-11T10:48:12.481Z,65
2017-08-11T10:50:13.919Z,60
2017-08-11T10:52:15.365Z,55
2017-08-11T10:54:16.780Z,50
2017-08-11T10:57:00.130Z,50
2017-08-11T10:59:01.761Z,50
2017-08-11T11:01:03.279Z,45
2017-08-11T11:03:04.756Z,50
2017-08-11T11:05:06.236Z,55
2017-08-11T11:07:07.710Z,55
2017-08-11T11:09:09.140Z,60
2017-08-11T11:11:10.679Z,65
2017-08-11T11:13:12.146Z,65
2017-08-11T11:15:13.571Z,65
2017-08-11T11:17:15.037Z,75
2017-08-11T11:19:16.493Z,80
2017-08-11T11:21:18.037Z,115
2017-08-11T11:23:19.496Z,105
2017-08-11T11:25:20.992Z,85
2017-08-11T11:27:22.526Z,85
2017-08-11T11:29:24.008Z,60
2017-08-11T11:31:25.561Z,45
2017-08-11T11:33:27.169Z,40
2017-08-11T11:35:28.964Z,35
2017-08-11T11:37:30.484Z,30
2017-08-11T11:39:32.014Z,35
2017-08-11T11:41:33.601Z,35
2017-08-11T11:43:35.092Z,40
2017-08-11T11:45:36.703Z,45
2017-08-11T11:47:38.342Z,40
2017-08-11T11:49:40.065Z,40
2017-08-11T11:51:41.773Z,40
2017-08-11T11:53:43.414Z,40
2017-08-11T11:55:44.944Z,40
2017-08-11T11:57:46.506Z,40
2017-08-11T11:59:48.062Z,40
2017-08-11T12:01:49.557Z,45
2017-08-11T12:03:51.265Z,40
2017-08-11T12:05:52.855Z,40
2017-08-11T12:07:54.347Z,35
2017-08-11T12:09:55.830Z,40
2017-08-11T12:11:57.352Z,40
2017-08-11T12:13:58.830Z,35
2017-08-11T12:16:00.334Z,30
2017-08-11T12:18:41.802Z,30
2017-08-11T12:20:43.235Z,25
2017-08-11T12:22:44.661Z,25
2017-08-11T12:24:46.092Z,25
2017-08-11T12:26:47.585Z,30
2017-08-11T12:28:49.012Z,30
2017-08-11T12:30:50.445Z,35
2017-08-11T12:32:51.894Z,35
2017-08-11T12:34:53.376Z,35
2017-08-11T12:36:54.899Z,35
2017-08-11T12:38:56.334Z,35
2017-08-11T12:40:57.763Z,35
2017-08-11T12:42:59.193Z,35
2017-08-11T12:45:00.635Z,30
2017-08-11T12:47:02.066Z,30
2017-08-11T12:49:03.508Z,35
2017-08-11T12:51:04.942Z,35
2017-08-11T12:53:06.378Z,35
2017-08-11T12:55:07.920Z,30
2017-08-11T12:57:09.353Z,25
2017-08-11T12:59:10.780Z,25
2017-08-11T13:01:12.216Z,20
2017-08-11T13:03:13.644Z,20
2017-08-11T13:05:15.093Z,20
2017-08-11T13:07:16.593Z,20
2017-08-11T13:09:18.028Z,15
2017-08-11T13:11:19.457Z,15
2017-08-11T13:13:20.879Z,10
2017-08-11T13:15:22.317Z,10
2017-08-11T13:17:23.786Z,10
2017-08-11T13:19:25.239Z,5
2017-08-11T13:21:26.702Z,5
2017-08-11T13:24:10.258Z,5
2017-08-11T13:26:11.633Z,5
2017-08-11T13:28:13.174Z,5
2017-08-11T13:30:14.661Z,5
2017-08-11T13:32:16.551Z,5
2017-08-11T13:34:17.993Z,5
2017-08-11T13:36:19.429Z,5
2017-08-11T13:38:20.859Z,5
2017-08-11T13:40:22.286Z,5
2017-08-11T13:42:24.131Z,5
2017-08-11T13:44:25.564Z,5
2017-08-11T13:46:26.991Z,5
2017-08-11T13:48:28.453Z,5
2017-08-11T13:50:29.891Z,10
2017-08-11T13:52:31.320Z,10
2017-08-11T13:54:32.751Z,10
2017-08-11T13:56:34.204Z,10
2017-08-11T13:58:35.743Z,10
2017-08-11T14:00:37.672Z,10
2017-08-11T14:02:39.395Z,10
2017-08-11T14:04:40.900Z,10
2017-08-11T14:06:42.332Z,10
2017-08-11T14:08:43.817Z,15
2017-08-11T14:10:45.334Z,15
2017-08-11T14:12:46.857Z,15
2017-08-11T14:14:48.343Z,20
2017-08-11T14:16:49.833Z,20
2017-08-11T14:18:51.386Z,20
2017-08-11T14:20:52.914Z,20
2017-08-11T14:22:54.444Z,20
2017-08-11T14:24:55.937Z,15
2017-08-11T14:27:38.456Z,15
2017-08-11T14:29:39.862Z,10
2017-08-11T14:32:22.264Z,10
2017-08-11T14:34:23.691Z,10
2017-08-11T14:36:25.126Z,10
2017-08-11T14:38:26.553Z,10
2017-08-11T14:40:27.985Z,15
2017-08-11T14:42:29.415Z,15
2017-08-11T14:44:30.846Z,15
2017-08-11T14:46:32.276Z,15
2017-08-11T14:48:33.710Z,15
2017-08-11T14:50:35.139Z,15
2017-08-11T14:52:36.570Z,15
2017-08-11T14:54:38.005Z,10
2017-08-11T14:56:39.433Z,10
2017-08-11T14:58:40.869Z,10
2017-08-11T15:00:42.297Z,10
2017-08-11T15:02:43.719Z,5
2017-08-11T15:04:45.154Z,5
2017-08-11T15:06:46.584Z,5
2017-08-11T15:08:48.013Z,5
2017-08-11T15:10:49.436Z,5
2017-08-11T15:12:50.868Z,5
2017-08-11T15:14:52.302Z,5
2017-08-11T15:16:53.725Z,5
2017-08-11T15:18:55.153Z,5
2017-08-11T15:20:56.578Z,5
2017-08-11T15:22:58.012Z,5
2017-08-11T15:24:59.447Z,5
2017-08-11T15:27:00.876Z,5
2017-08-11T15:29:02.301Z,5
2017-08-11T15:31:03.735Z,5
2017-08-11T15:33:05.163Z,5
2017-08-11T15:35:06.593Z,5
2017-08-11T15:37:08.020Z,5
2017-08-11T15:39:09.449Z,5
2017-08-11T15:41:10.880Z,5
2017-08-11T15:43:12.307Z,5
2017-08-11T15:45:13.761Z,5
2017-08-11T15:47:15.160Z,5
2017-08-11T15:49:16.593Z,5
2017-08-11T15:51:18.020Z,5
2017-08-11T15:53:19.447Z,5
2017-08-11T15:55:20.872Z,5
2017-08-11T15:57:22.304Z,5
2017-08-11T15:59:23.731Z,5
2017-08-11T16:01:25.175Z,5
2017-08-11T16:03:26.629Z,5
2017-08-11T16:05:28.050Z,5
2017-08-11T16:07:29.482Z,5
2017-08-11T16:09:30.908Z,5
2017-08-11T16:11:32.338Z,5
2017-08-11T16:13:33.759Z,5
2017-08-11T16:15:35.236Z,5
2017-08-11T16:17:36.631Z,5
2017-08-11T16:19:38.055Z,5
2017-08-11T16:21:39.487Z,10
2017-08-11T16:23:40.916Z,10
2017-08-11T16:25:42.348Z,10
2017-08-11T16:27:43.777Z,10
2017-08-11T16:29:45.209Z,10
2017-08-11T16:31:46.634Z,10
2017-08-11T16:34:28.041Z,10
2017-08-11T16:36:29.470Z,10
2017-08-11T16:38:30.899Z,10
2017-08-11T16:40:32.331Z,10
2017-08-11T16:42:33.761Z,10
2017-08-11T16:44:35.192Z,10
2017-08-11T16:46:36.621Z,10
2017-08-11T16:48:38.119Z,10
2017-08-11T16:50:39.549Z,10
2017-08-11T16:52:40.976Z,10
2017-08-11T16:54:42.426Z,10
2017-08-11T16:56:43.854Z,5
2017-08-11T16:58:45.280Z,5
2017-08-11T17:00:46.707Z,5
2017-08-11T17:02:48.127Z,5
2017-08-11T17:04:50.606Z,5
2017-08-11T17:06:52.050Z,5
2017-08-11T17:08:53.596Z,5
2017-08-11T17:10:55.208Z,5
2017-08-11T17:12:56.628Z,5
2017-08-11T17:14:58.057Z,5
2017-08-11T17:16:59.895Z,5
2017-08-11T17:19:01.397Z,5
2017-08-11T17:21:02.942Z,5
2017-08-11T17:23:45.358Z,5
2017-08-11T17:25:46.781Z,5
2017-08-11T17:27:48.216Z,5
2017-08-11T17:29:49.641Z,5
2017-08-11T17:31:51.073Z,5
2017-08-11T17:33:52.616Z,5
2017-08-11T17:35:54.031Z,5
2017-08-11T17:37:56.358Z,5
2017-08-11T17:39:57.994Z,5
2017-08-11T17:41:59.411Z,5
2017-08-11T17:44:00.832Z,5
2017-08-11T17:46:02.261Z,5
2017-08-11T17:48:04.179Z,5
2017-08-11T17:50:05.614Z,5
2017-08-11T17:52:07.054Z,5
2017-08-11T17:54:08.481Z,5
2017-08-11T17:56:09.907Z,5
2017-08-11T17:58:11.335Z,5
2017-08-11T18:00:12.761Z,0
2017-08-11T18:02:14.186Z,0
2017-08-11T18:04:15.636Z,0
2017-08-11T18:06:17.081Z,0
2017-08-11T18:08:18.607Z,0
2017-08-11T18:10:20.107Z,0
2017-08-11T18:12:21.776Z,0
2017-08-11T18:14:23.255Z,0
2017-08-11T18:16:25.525Z,0
2017-08-11T18:18:27.126Z,0
2017-08-11T18:20:28.746Z,0
2017-08-11T18:22:30.255Z,0
2017-08-11T18:24:31.812Z,0
2017-08-11T18:26:33.513Z,0
2017-08-11T18:28:35.646Z,0
2017-08-11T18:30:37.218Z,0
2017-08-11T18:32:38.730Z,0
2017-08-11T18:34:40.447Z,0
2017-08-11T18:36:42.056Z,0
2017-08-11T18:38:43.588Z,0
2017-08-11T18:40:45.849Z,0
2017-08-11T18:42:47.360Z,0
2017-08-11T18:44:48.852Z,0
2017-08-11T18:46:50.360Z,0
2017-08-11T18:48:51.878Z,0
2017-08-11T18:50:53.389Z,0
2017-08-11T18:52:55.721Z,0
2017-08-11T18:54:57.226Z,0
2017-08-11T18:56:58.722Z,0
2017-08-11T18:59:00.214Z,0
2017-08-11T19:01:02.029Z,0
2017-08-11T19:03:03.536Z,0
2017-08-11T19:05:05.690Z,0
2017-08-11T19:07:07.187Z,0
2017-08-11T19:09:08.694Z,0
2017-08-11T19:11:10.226Z,0
2017-08-11T19:13:11.765Z,0
2017-08-11T19:15:13.271Z,0
2017-08-11T19:17:15.431Z,0
2017-08-11T19:19:16.808Z,0
2017-08-11T19:21:18.326Z,0
2017-08-11T19:23:19.830Z,0
2017-08-11T19:26:02.453Z,0
2017-08-11T19:28:03.880Z,0
2017-08-11T19:30:05.302Z,0
2017-08-11T19:32:06.725Z,0
2017-08-11T19:34:08.149Z,0
2017-08-11T19:36:09.571Z,0
2017-08-11T19:38:10.992Z,0
2017-08-11T19:40:12.421Z,0
2017-08-11T19:42:13.855Z,0
2017-08-11T19:44:15.315Z,0
2017-08-11T19:46:16.736Z,0
2017-08-11T19:48:18.201Z,0
2017-08-11T19:50:19.700Z,0
2017-08-11T19:52:21.210Z,0
2017-08-11T19:54:22.759Z,0
2017-08-11T19:56:24.209Z,0
2017-08-11T19:58:25.651Z,0
2017-08-11T20:00:27.181Z,0
2017-08-11T20:02:28.646Z,0
2017-08-11T20:04:30.119Z,0
2017-08-11T20:06:31.688Z,0
2017-08-11T20:08:33.094Z,0
2017-08-11T20:10:34.822Z,0
2017-08-11T20:12:36.373Z,0
2017-08-11T20:14:37.887Z,0
2017-08-11T20:16:39.379Z,0
2017-08-11T20:18:40.882Z,0
2017-08-11T20:20:42.351Z,0
2017-08-11T20:22:43.844Z,0
2017-08-11T20:24:45.395Z,0
2017-08-11T20:26:46.839Z,0
2017-08-11T20:28:48.287Z,0
2017-08-11T20:30:49.873Z,0
2017-08-11T20:32:51.367Z,0
2017-08-11T20:34:52.851Z,0
2017-08-11T20:36:54.367Z,0
2017-08-11T20:38:55.879Z,0
2017-08-11T20:40:57.421Z,0
2017-08-11T20:42:59.033Z,0
2017-08-11T20:45:00.506Z,0
2017-08-11T20:47:02.167Z,0
2017-08-11T20:49:03.748Z,0
2017-08-11T20:51:05.294Z,0
2017-08-11T20:53:06.810Z,0
2017-08-11T20:55:48.482Z,0
2017-08-11T20:57:49.908Z,0
2017-08-11T20:59:51.327Z,0
2017-08-11T21:01:52.779Z,0
2017-08-11T21:04:35.193Z,0
2017-08-11T21:06:36.618Z,0
2017-08-11T21:08:38.040Z,0
2017-08-11T21:10:39.475Z,0
2017-08-11T21:12:40.899Z,0
2017-08-11T21:14:42.327Z,0
2017-08-11T21:16:43.753Z,0
2017-08-11T21:18:45.255Z,0
2017-08-11T21:20:46.683Z,0
2017-08-11T21:22:48.103Z,0
2017-08-11T21:24:49.536Z,0
2017-08-11T21:26:50.960Z,0
2017-08-11T21:28:52.381Z,0
2017-08-11T21:30:53.800Z,0
2017-08-11T21:32:55.230Z,0
2017-08-11T21:34:56.720Z,0
2017-08-11T21:36:58.125Z,0
2017-08-11T21:38:59.548Z,0
2017-08-11T21:41:00.977Z,0
2017-08-11T21:43:02.409Z,0
2017-08-11T21:45:44.830Z,0
2017-08-11T21:47:46.258Z,0
2017-08-11T21:49:47.683Z,0
2017-08-11T21:51:49.111Z,0
2017-08-11T21:53:50.536Z,0
2017-08-11T21:55:51.960Z,0
2017-08-11T21:57:53.385Z,0
2017-08-11T21:59:54.815Z,0
2017-08-11T22:01:56.238Z,0
2017-08-11T22:03:57.660Z,0
2017-08-11T22:05:59.089Z,0
2017-08-11T22:08:00.506Z,0
2017-08-11T22:10:02.098Z,0
2017-08-11T22:12:03.663Z,0
2017-08-11T22:14:05.077Z,0
2017-08-11T22:16:06.504Z,0
2017-08-11T22:18:07.938Z,0
2017-08-11T22:20:09.371Z,0
2017-08-11T22:22:10.795Z,0
2017-08-11T22:24:12.236Z,0
2017-08-11T22:26:13.674Z,0
2017-08-11T22:28:15.191Z,0
2017-08-11T22:30:16.704Z,0
2017-08-11T22:32:18.148Z,0
2017-08-11T22:34:19.657Z,0
2017-08-11T22:36:21.075Z,0
2017-08-11T22:38:22.520Z,0
2017-08-11T22:40:23.963Z,0
2017-08-11T22:42:25.407Z,0
2017-08-11T22:44:26.837Z,0
2017-08-11T22:46:28.259Z,0
2017-08-11T22:48:29.934Z,0
2017-08-11T22:50:31.403Z,0
2017-08-11T22:52:32.876Z,0
2017-08-11T22:54:34.331Z,0
2017-08-11T22:56:35.783Z,0
2017-08-11T22:58:37.230Z,0
2017-08-11T23:00:38.753Z,0
2017-08-11T23:02:40.247Z,0
2017-08-11T23:05:22.645Z,0
2017-08-11T23:07:24.072Z,0
2017-08-11T23:09:25.511Z,0
2017-08-11T23:11:26.942Z,0
2017-08-11T23:13:28.363Z,0
2017-08-11T23:15:29.812Z,0
2017-08-11T23:17:31.333Z,0
2017-08-11T23:20:13.745Z,0
2017-08-11T23:22:15.171Z,0
2017-08-11T23:24:16.597Z,0
2017-08-11T23:26:18.018Z,0
2017-08-11T23:28:19.445Z,0
2017-08-11T23:30:20.872Z,0
2017-08-11T23:32:22.302Z,0
2017-08-11T23:34:23.779Z,0
2017-08-11T23:36:25.209Z,0
2017-08-11T23:38:26.635Z,0
2017-08-11T23:40:28.175Z,0
2017-08-11T23:42:29.696Z,0
2017-08-11T23:44:31.147Z,0
2017-08-11T23:46:32.677Z,0
2017-08-11T23:48:34.161Z,0
2017-08-11T23:51:16.603Z,0
2017-08-11T23:53:18.028Z,0
2017-08-11T23:55:19.456Z,0
2017-08-11T23:57:20.878Z,0
2017-08-11T23:59:22.301Z,0
